createdAt,value
2022-10-17T00:07:53.284Z,98490
2022-10-17T00:19:53.278Z,98510
2022-10-17T00:43:53.232Z,98520
2022-10-17T00:55:53.281Z,98540
2022-10-17T01:07:53.163Z,98540
2022-10-17T01:19:53.226Z,98520
2022-10-17T01:31:53.271Z,98530
2022-10-17T01:43:53.280Z,98520
2022-10-17T01:55:53.328Z,98520
2022-10-17T02:07:54.802Z,98520
2022-10-17T02:19:53.280Z,98520
2022-10-17T02:31:53.168Z,98510
2022-10-17T02:43:53.170Z,98520
2022-10-17T02:55:53.246Z,98520
2022-10-17T03:07:53.275Z,98530
2022-10-17T03:19:53.170Z,98530
2022-10-17T03:31:53.285Z,98540
2022-10-17T03:43:53.162Z,98530
2022-10-17T03:55:53.285Z,98530
2022-10-17T04:07:53.167Z,98540
2022-10-17T04:19:53.284Z,98570
2022-10-17T04:31:53.165Z,98580
2022-10-17T04:43:53.167Z,98560
2022-10-17T04:55:53.253Z,98570
2022-10-17T05:07:53.162Z,98550
2022-10-17T05:19:53.164Z,98560
2022-10-17T05:31:53.202Z,98550
2022-10-17T05:43:53.168Z,98560
2022-10-17T05:55:53.253Z,98560
2022-10-17T06:07:55.090Z,98550
2022-10-17T06:19:53.300Z,98580
2022-10-17T06:31:53.175Z,98590
2022-10-17T06:43:53.174Z,98600
2022-10-17T06:55:53.162Z,98620
2022-10-17T07:07:53.255Z,98620
2022-10-17T07:19:53.275Z,98630
2022-10-17T07:31:53.234Z,98640
2022-10-17T07:43:53.172Z,98670
2022-10-17T07:55:53.284Z,98670
2022-10-17T08:07:53.217Z,98670
2022-10-17T08:19:53.171Z,98680
2022-10-17T08:31:58.526Z,98690
2022-10-17T08:43:53.256Z,98680
2022-10-17T08:55:53.276Z,98690
2022-10-17T09:07:53.246Z,98720
2022-10-17T09:19:53.167Z,98710
2022-10-17T09:31:53.196Z,98750
2022-10-17T09:43:53.379Z,98720
2022-10-17T09:55:53.252Z,98740
2022-10-17T10:07:53.285Z,98730
2022-10-17T10:19:53.176Z,98770
2022-10-17T10:31:53.239Z,98770
2022-10-17T10:43:53.167Z,98780
2022-10-17T10:55:53.256Z,98780
2022-10-17T11:07:53.276Z,98790
2022-10-17T11:19:53.183Z,98780
2022-10-17T11:31:53.169Z,98830
2022-10-17T11:43:53.287Z,98870
2022-10-17T11:55:53.259Z,98840
2022-10-17T12:07:53.253Z,98830
2022-10-17T12:19:53.286Z,98870
2022-10-17T12:31:53.272Z,98820
2022-10-17T12:43:53.315Z,98870
2022-10-17T12:55:53.169Z,98870
2022-10-17T13:07:53.288Z,98890
2022-10-17T13:19:53.256Z,98890
2022-10-17T13:31:53.362Z,98900
2022-10-17T13:43:53.285Z,98910
2022-10-17T13:56:09.362Z,98910
2022-10-17T14:08:10.546Z,98920
2022-10-17T14:20:05.860Z,98930
2022-10-17T14:31:53.283Z,98930
2022-10-17T14:43:53.277Z,98930
2022-10-17T14:55:53.221Z,98940
2022-10-17T15:07:53.234Z,98940
2022-10-17T15:19:53.177Z,98950
2022-10-17T15:31:53.235Z,98950
2022-10-17T15:43:53.251Z,98950
2022-10-17T15:55:53.245Z,98970
2022-10-17T16:07:53.231Z,98980
2022-10-17T16:19:53.167Z,98980
2022-10-17T16:31:53.165Z,99010
2022-10-17T16:43:53.274Z,99020
2022-10-17T16:55:53.167Z,99020
2022-10-17T17:07:53.170Z,99020
2022-10-17T17:19:53.174Z,99030
2022-10-17T17:31:53.166Z,99030
2022-10-17T17:43:53.160Z,99030
2022-10-17T17:55:53.249Z,99040
2022-10-17T18:07:53.168Z,99050
2022-10-17T18:19:53.166Z,99050
2022-10-17T18:31:53.169Z,99080
2022-10-17T18:43:53.168Z,99080
2022-10-17T18:55:53.165Z,99070
2022-10-17T19:07:53.161Z,99090
2022-10-17T19:19:53.163Z,99100
2022-10-17T19:31:53.222Z,99100
2022-10-17T19:43:53.166Z,99090
2022-10-17T19:55:53.164Z,99080
2022-10-17T20:07:53.166Z,99100
2022-10-17T20:19:53.162Z,99100
2022-10-17T20:31:53.167Z,99100
2022-10-17T20:43:53.168Z,99110
2022-10-17T20:55:53.273Z,99120
2022-10-17T21:07:53.326Z,99120
2022-10-17T21:19:53.281Z,99120
2022-10-17T21:31:53.177Z,99140
2022-10-17T21:43:53.221Z,99140
2022-10-17T21:55:53.252Z,99130
2022-10-17T22:07:53.165Z,99130
2022-10-17T22:19:53.411Z,99140
2022-10-17T22:31:53.170Z,99140
2022-10-17T22:43:53.160Z,99140
2022-10-17T22:55:53.282Z,99130
2022-10-17T23:07:53.258Z,99110
2022-10-17T23:19:55.564Z,99100
2022-10-17T23:31:53.165Z,99120
2022-10-17T23:43:53.288Z,99100
2022-10-17T23:55:53.247Z,99090
